LOWW/VIE METAR and TAF weather

Enter ICAO airport designator
Station Type Date Time Source
LOWW METAR 2021/07/29 03:20 UTC NOAA

LOWW 290320Z 30011KT CAVOK 18/15 Q1015 NOSIG


Station Type Date Time Source
LOWW Decoded METAR 2021/07/29 03:20 UTC NOAA

Wien / Schwechat-Flughafen, Austria (LOWW) 48-07N 016-34E 190M
Jul 28, 2021 - 11:20 PM EDT / 2021.07.29 0320 UTC
Wind: from the WNW (300 degrees) at 13 MPH (11 KT):0
Visibility: greater than 7 mile(s):0
Temperature: 64 F (18 C)
Dew Point: 59 F (15 C)
Relative Humidity: 82%
Pressure (altimeter): 29.97 in. Hg (1015 hPa)
ob: LOWW 290320Z 30011KT CAVOK 18/15 Q1015 NOSIG
cycle: 3

Station Type Date Time Source
LOWW TAF 2021/07/29 03:21 UTC NOAA

TAF LOWW 290215Z 2903/3009 29007KT CAVOK TX29/2915Z TN18/2903Z
BECMG 2910/2912 VRB03KT
TEMPO 3004/3006 30010KT -SHRA FEW040TCU BKN050

Example: see airport list